createdAt,value
2018-05-03T00:00:35.960Z,999.65
2018-05-03T00:01:35.891Z,999.66
2018-05-03T00:02:35.842Z,999.65
2018-05-03T00:03:35.792Z,999.65
2018-05-03T00:04:35.742Z,999.66
2018-05-03T00:05:35.715Z,999.63
2018-05-03T00:06:35.648Z,999.61
2018-05-03T00:07:35.600Z,999.61
2018-05-03T00:08:35.547Z,999.63
2018-05-03T00:09:35.501Z,999.60
2018-05-03T00:10:35.479Z,999.63
2018-05-03T00:11:35.405Z,999.61
2018-05-03T00:12:35.353Z,999.62
2018-05-03T00:13:35.305Z,999.64
2018-05-03T00:14:35.255Z,999.68
2018-05-03T00:15:35.234Z,999.67
2018-05-03T00:16:35.164Z,999.67
2018-05-03T00:17:35.112Z,999.71
2018-05-03T00:18:35.064Z,999.73
2018-05-03T00:19:35.014Z,999.70
2018-05-03T00:20:34.991Z,999.68
2018-05-03T00:21:34.917Z,999.70
2018-05-03T00:22:34.869Z,999.71
2018-05-03T00:23:34.822Z,999.79
2018-05-03T00:24:34.771Z,999.81
2018-05-03T00:25:34.747Z,999.78
2018-05-03T00:26:34.679Z,999.81
2018-05-03T00:27:34.627Z,999.81
2018-05-03T00:28:34.576Z,999.88
2018-05-03T00:29:34.527Z,999.89
2018-05-03T00:30:34.503Z,999.93
2018-05-03T00:31:34.432Z,999.94
2018-05-03T00:32:34.389Z,999.91
2018-05-03T00:33:34.339Z,999.89
2018-05-03T00:34:34.285Z,999.91
2018-05-03T00:35:34.258Z,999.93
2018-05-03T00:36:34.188Z,999.92
2018-05-03T00:37:34.135Z,999.90
2018-05-03T00:38:34.093Z,999.94
2018-05-03T00:39:34.042Z,999.95
2018-05-03T00:40:34.016Z,999.98
2018-05-03T00:41:33.964Z,1000.01
2018-05-03T00:42:33.893Z,1000.04
2018-05-03T00:43:41.676Z,1000.05
2018-05-03T00:44:33.798Z,1000.05
2018-05-03T00:45:33.747Z,1000.07
2018-05-03T00:46:33.724Z,1000.06
2018-05-03T00:47:33.651Z,1000.06
2018-05-03T00:48:33.603Z,1000.02
2018-05-03T00:49:33.552Z,1000.05
2018-05-03T00:50:33.502Z,1000.08
2018-05-03T00:51:33.477Z,1000.11
2018-05-03T00:52:33.402Z,1000.11
2018-05-03T00:53:33.353Z,1000.08
2018-05-03T00:54:33.307Z,1000.13
2018-05-03T00:55:33.257Z,1000.16
2018-05-03T00:56:33.231Z,1000.16
2018-05-03T00:57:33.161Z,1000.14
2018-05-03T00:58:33.115Z,1000.18
2018-05-03T00:59:33.065Z,1000.19
2018-05-03T01:00:33.012Z,1000.24
2018-05-03T01:01:32.989Z,1000.19
2018-05-03T01:02:32.917Z,1000.19
2018-05-03T01:03:32.874Z,1000.20
2018-05-03T01:04:32.816Z,1000.21
2018-05-03T01:05:32.773Z,1000.22
2018-05-03T01:06:32.744Z,1000.28
2018-05-03T01:07:32.674Z,1000.27
2018-05-03T01:08:32.624Z,1000.26
2018-05-03T01:09:32.571Z,1000.25
2018-05-03T01:10:32.527Z,1000.27
2018-05-03T01:11:32.500Z,1000.24
2018-05-03T01:12:32.428Z,1000.27
2018-05-03T01:13:32.377Z,1000.27
2018-05-03T01:14:32.327Z,1000.29
2018-05-03T01:15:32.277Z,1000.27
2018-05-03T01:16:32.255Z,1000.28
2018-05-03T01:17:32.183Z,1000.27
2018-05-03T01:18:32.133Z,1000.33
2018-05-03T01:19:32.084Z,1000.32
2018-05-03T01:20:32.032Z,1000.35
2018-05-03T01:21:32.010Z,1000.38
2018-05-03T01:22:31.937Z,1000.40
2018-05-03T01:23:31.891Z,1000.39
2018-05-03T01:24:31.838Z,1000.41
2018-05-03T01:25:31.789Z,1000.40
2018-05-03T01:26:31.763Z,1000.39
2018-05-03T01:27:31.691Z,1000.38
2018-05-03T01:28:31.648Z,1000.35
2018-05-03T01:29:31.591Z,1000.39
2018-05-03T01:30:31.544Z,1000.38
2018-05-03T01:31:31.521Z,1000.37
2018-05-03T01:32:31.446Z,1000.37
2018-05-03T01:33:31.397Z,1000.40
2018-05-03T01:34:31.348Z,1000.40
2018-05-03T01:35:31.297Z,1000.40
2018-05-03T01:36:31.294Z,1000.37
2018-05-03T01:37:31.201Z,1000.38
2018-05-03T01:38:31.149Z,1000.36
2018-05-03T01:39:31.102Z,1000.36
2018-05-03T01:40:31.054Z,1000.35
2018-05-03T01:41:31.028Z,1000.38
2018-05-03T01:42:30.955Z,1000.37
2018-05-03T01:43:30.905Z,1000.39
2018-05-03T01:44:30.854Z,1000.42
2018-05-03T01:45:30.804Z,1000.43
2018-05-03T01:46:30.782Z,1000.42
2018-05-03T01:47:30.712Z,1000.48
2018-05-03T01:48:30.661Z,1000.46
2018-05-03T01:49:30.607Z,1000.48
2018-05-03T01:50:30.561Z,1000.45
2018-05-03T01:51:30.536Z,1000.51
2018-05-03T01:52:30.464Z,1000.51
2018-05-03T01:53:30.409Z,1000.51
2018-05-03T01:54:30.361Z,1000.49
2018-05-03T01:55:30.315Z,1000.52
2018-05-03T01:56:30.297Z,1000.51
2018-05-03T01:57:30.213Z,1000.52
2018-05-03T01:58:30.164Z,1000.53
2018-05-03T01:59:30.115Z,1000.57
2018-05-03T02:00:30.068Z,1000.57
2018-05-03T02:01:30.042Z,1000.57
2018-05-03T02:02:29.967Z,1000.60
2018-05-03T02:03:29.916Z,1000.64
2018-05-03T02:04:29.869Z,1000.69
2018-05-03T02:05:29.821Z,1000.66
2018-05-03T02:06:29.793Z,1000.63
2018-05-03T02:07:29.720Z,1000.61
2018-05-03T02:08:29.671Z,1000.62
2018-05-03T02:09:29.619Z,1000.60
2018-05-03T02:10:29.570Z,1000.61
2018-05-03T02:11:29.552Z,1000.60
2018-05-03T02:12:29.473Z,1000.62
2018-05-03T02:13:29.425Z,1000.61
2018-05-03T02:14:29.376Z,1000.64
2018-05-03T02:15:29.324Z,1000.61
2018-05-03T02:16:29.297Z,1000.65
2018-05-03T02:17:29.228Z,1000.72
2018-05-03T02:18:29.174Z,1000.69
2018-05-03T02:19:29.125Z,1000.72
2018-05-03T02:20:29.077Z,1000.75
2018-05-03T02:21:29.050Z,1000.72
2018-05-03T02:22:28.979Z,1000.72
2018-05-03T02:23:28.930Z,1000.74
2018-05-03T02:24:28.877Z,1000.69
2018-05-03T02:25:28.827Z,1000.71
2018-05-03T02:26:28.808Z,1000.79
2018-05-03T02:27:28.731Z,1000.77
2018-05-03T02:28:28.698Z,1000.79
2018-05-03T02:29:28.632Z,1000.82
2018-05-03T02:30:28.580Z,1000.84
2018-05-03T02:31:28.554Z,1000.84
2018-05-03T02:32:28.480Z,1000.85
2018-05-03T02:33:28.433Z,1000.87
2018-05-03T02:34:28.381Z,1000.86
2018-05-03T02:35:28.336Z,1000.86
2018-05-03T02:36:28.306Z,1000.93
2018-05-03T02:37:28.229Z,1000.91
2018-05-03T02:38:28.183Z,1000.91
2018-05-03T02:39:28.138Z,1000.95
2018-05-03T02:40:28.087Z,1000.96
2018-05-03T02:41:28.072Z,1000.92
2018-05-03T02:42:27.987Z,1000.92
2018-05-03T02:43:27.939Z,1000.97
2018-05-03T02:44:27.887Z,1000.96
2018-05-03T02:45:27.835Z,1000.98
2018-05-03T02:46:27.787Z,1000.97
2018-05-03T02:47:27.765Z,1000.98
2018-05-03T02:48:27.689Z,1000.98
2018-05-03T02:49:27.640Z,1000.94
2018-05-03T02:50:27.589Z,1001.00
2018-05-03T02:51:27.542Z,1001.04
2018-05-03T02:52:27.511Z,1001.03
2018-05-03T02:53:27.449Z,1001.02
2018-05-03T02:54:27.387Z,1001.05
2018-05-03T02:55:27.332Z,1001.05
2018-05-03T02:56:27.294Z,1001.04
2018-05-03T02:57:27.268Z,1001.04
2018-05-03T02:58:27.189Z,1001.01
2018-05-03T02:59:27.151Z,1000.98
2018-05-03T03:00:27.094Z,1001.02
2018-05-03T03:01:27.038Z,1000.96
2018-05-03T03:02:27.061Z,1001.01
2018-05-03T03:03:26.940Z,1000.98
2018-05-03T03:04:26.883Z,1001.01
2018-05-03T03:05:26.844Z,1001.04
2018-05-03T03:06:26.793Z,1001.08
2018-05-03T03:07:26.767Z,1001.09
2018-05-03T03:08:26.685Z,1001.13
2018-05-03T03:09:26.641Z,1001.15
2018-05-03T03:10:26.590Z,1001.15
2018-05-03T03:11:26.545Z,1001.15
2018-05-03T03:12:26.517Z,1001.15
2018-05-03T03:13:26.442Z,1001.21
2018-05-03T03:14:26.393Z,1001.21
2018-05-03T03:15:26.343Z,1001.22
2018-05-03T03:16:26.289Z,1001.16
2018-05-03T03:17:26.264Z,1001.19
2018-05-03T03:18:26.194Z,1001.19
2018-05-03T03:19:26.141Z,1001.13
2018-05-03T03:20:26.105Z,1001.12
2018-05-03T03:21:26.040Z,1001.13
2018-05-03T03:22:26.027Z,1001.11
2018-05-03T03:23:25.942Z,1001.10
2018-05-03T03:24:25.894Z,1001.12
2018-05-03T03:25:25.839Z,1001.18
2018-05-03T03:26:25.795Z,1001.21
2018-05-03T03:27:25.747Z,1001.24
2018-05-03T03:28:25.719Z,1001.22
2018-05-03T03:29:25.645Z,1001.26
2018-05-03T03:30:25.593Z,1001.21
2018-05-03T03:31:25.544Z,1001.20
2018-05-03T03:32:25.491Z,1001.24
2018-05-03T03:33:25.468Z,1001.22
2018-05-03T03:34:25.411Z,1001.22
2018-05-03T03:35:25.345Z,1001.26
2018-05-03T03:36:25.292Z,1001.27
2018-05-03T03:37:25.242Z,1001.32
2018-05-03T03:38:25.216Z,1001.34
2018-05-03T03:39:25.144Z,1001.33
2018-05-03T03:40:25.090Z,1001.37
2018-05-03T03:41:25.046Z,1001.35
2018-05-03T03:42:24.995Z,1001.38
2018-05-03T03:43:24.968Z,1001.39
2018-05-03T03:44:24.900Z,1001.38
2018-05-03T03:45:24.844Z,1001.39
2018-05-03T03:46:24.792Z,1001.46
2018-05-03T03:47:24.747Z,1001.43
2018-05-03T03:48:24.719Z,1001.47
2018-05-03T03:49:24.645Z,1001.51
2018-05-03T03:50:24.594Z,1001.52
2018-05-03T03:51:24.547Z,1001.54
2018-05-03T03:52:24.494Z,1001.60
2018-05-03T03:53:24.464Z,1001.62
2018-05-03T03:54:24.394Z,1001.60
2018-05-03T03:55:24.345Z,1001.64
2018-05-03T03:56:24.301Z,1001.60
2018-05-03T03:57:24.246Z,1001.62
2018-05-03T03:58:24.219Z,1001.59
2018-05-03T03:59:24.146Z,1001.64
2018-05-03T04:00:24.097Z,1001.66
2018-05-03T04:01:24.060Z,1001.66
2018-05-03T04:02:23.999Z,1001.63
2018-05-03T04:03:23.975Z,1001.60
2018-05-03T04:04:23.897Z,1001.57
2018-05-03T04:05:23.851Z,1001.57
2018-05-03T04:06:23.798Z,1001.55
2018-05-03T04:07:23.752Z,1001.58
2018-05-03T04:08:23.738Z,1001.62
2018-05-03T04:09:23.652Z,1001.58
2018-05-03T04:10:23.604Z,1001.64
2018-05-03T04:11:23.553Z,1001.67
2018-05-03T04:12:23.506Z,1001.72
2018-05-03T04:13:23.454Z,1001.69
2018-05-03T04:14:23.428Z,1001.71
2018-05-03T04:15:23.358Z,1001.65
2018-05-03T04:16:23.304Z,1001.71
2018-05-03T04:17:23.259Z,1001.73
2018-05-03T04:18:23.212Z,1001.76
2018-05-03T04:19:23.183Z,1001.78
2018-05-03T04:20:23.168Z,1001.78
2018-05-03T04:21:23.060Z,1001.79
2018-05-03T04:22:23.150Z,1001.76
2018-05-03T04:23:22.963Z,1001.76
2018-05-03T04:24:22.936Z,1001.76
2018-05-03T04:25:22.865Z,1001.79
2018-05-03T04:26:22.813Z,1001.78
2018-05-03T04:27:22.763Z,1001.80
2018-05-03T04:28:22.716Z,1001.81
2018-05-03T04:29:22.690Z,1001.79
2018-05-03T04:30:22.618Z,1001.84
2018-05-03T04:31:22.565Z,1001.82
2018-05-03T04:32:22.523Z,1001.88
2018-05-03T04:33:22.470Z,1001.91
2018-05-03T04:34:22.444Z,1001.94
2018-05-03T04:35:22.372Z,1001.94
2018-05-03T04:36:22.332Z,1001.95
2018-05-03T04:37:22.273Z,1002.00
2018-05-03T04:38:22.225Z,1001.96
2018-05-03T04:39:22.197Z,1001.99
2018-05-03T04:40:22.126Z,1002.02
2018-05-03T04:41:22.077Z,1002.00
2018-05-03T04:42:22.031Z,1001.96
2018-05-03T04:43:21.983Z,1001.94
2018-05-03T04:44:21.954Z,1001.97
2018-05-03T04:45:21.881Z,1002.01
2018-05-03T04:46:21.833Z,1002.08
2018-05-03T04:47:21.786Z,1002.09
2018-05-03T04:48:21.735Z,1002.05
2018-05-03T04:49:21.721Z,1002.06
2018-05-03T04:50:21.641Z,1002.05
2018-05-03T04:51:21.590Z,1002.09
2018-05-03T04:52:21.538Z,1002.19
2018-05-03T04:53:21.491Z,1002.14
2018-05-03T04:54:21.440Z,1002.15
2018-05-03T04:55:21.418Z,1002.18
2018-05-03T04:56:21.344Z,1002.17
2018-05-03T04:57:21.324Z,1002.21
2018-05-03T04:58:21.246Z,1002.24
2018-05-03T04:59:21.202Z,1002.24
2018-05-03T05:00:21.171Z,1002.30
2018-05-03T05:01:21.104Z,1002.30
2018-05-03T05:02:21.051Z,1002.29
2018-05-03T05:03:21.003Z,1002.34
2018-05-03T05:04:20.951Z,1002.37
2018-05-03T05:05:20.927Z,1002.37
2018-05-03T05:06:20.860Z,1002.41
2018-05-03T05:07:20.813Z,1002.37
2018-05-03T05:08:20.761Z,1002.45
2018-05-03T05:09:20.717Z,1002.45
2018-05-03T05:10:20.685Z,1002.49
2018-05-03T05:11:20.614Z,1002.48
2018-05-03T05:12:20.563Z,1002.47
2018-05-03T05:13:20.516Z,1002.47
2018-05-03T05:14:20.468Z,1002.46
2018-05-03T05:15:20.445Z,1002.47
2018-05-03T05:16:20.372Z,1002.47
2018-05-03T05:17:20.324Z,1002.51
2018-05-03T05:18:20.277Z,1002.51
2018-05-03T05:19:20.225Z,1002.61
2018-05-03T05:20:20.213Z,1002.60
2018-05-03T05:21:20.183Z,1002.64
2018-05-03T05:22:20.081Z,1002.63
2018-05-03T05:23:20.033Z,1002.67
2018-05-03T05:24:20.073Z,1002.68
2018-05-03T05:25:19.961Z,1002.72
2018-05-03T05:26:19.908Z,1002.78
2018-05-03T05:27:19.837Z,1002.79
2018-05-03T05:28:19.791Z,1002.81
2018-05-03T05:29:19.742Z,1002.80
2018-05-03T05:30:19.692Z,1002.87
2018-05-03T05:31:19.666Z,1002.84
2018-05-03T05:32:19.602Z,1002.90
2018-05-03T05:33:19.546Z,1002.91
2018-05-03T05:34:19.503Z,1002.92
2018-05-03T05:35:19.449Z,1002.94
2018-05-03T05:36:19.424Z,1002.93
2018-05-03T05:37:19.355Z,1003.00
2018-05-03T05:38:19.308Z,1002.96
2018-05-03T05:39:19.257Z,1003.03
2018-05-03T05:40:19.214Z,1003.07
2018-05-03T05:41:19.186Z,1003.07
2018-05-03T05:42:19.112Z,1003.13
2018-05-03T05:43:19.064Z,1003.16
2018-05-03T05:44:19.029Z,1003.11
2018-05-03T05:45:18.969Z,1003.11
2018-05-03T05:46:18.944Z,1003.12
2018-05-03T05:47:18.872Z,1003.15
2018-05-03T05:48:18.824Z,1003.17
2018-05-03T05:49:18.774Z,1003.14
2018-05-03T05:50:18.727Z,1003.21
2018-05-03T05:51:18.747Z,1003.22
2018-05-03T05:52:18.628Z,1003.22
2018-05-03T05:53:18.581Z,1003.24
2018-05-03T05:54:18.534Z,1003.26
2018-05-03T05:55:18.488Z,1003.21
2018-05-03T05:56:18.462Z,1003.19
2018-05-03T05:57:18.391Z,1003.24
2018-05-03T05:58:18.342Z,1003.25
2018-05-03T05:59:18.294Z,1003.26
2018-05-03T06:00:18.248Z,1003.27
2018-05-03T06:01:18.222Z,1003.31
2018-05-03T06:02:18.147Z,1003.31
2018-05-03T06:03:18.100Z,1003.31
2018-05-03T06:04:18.086Z,1003.35
2018-05-03T06:05:18.004Z,1003.40
2018-05-03T06:06:17.981Z,1003.40
2018-05-03T06:07:17.934Z,1003.40
2018-05-03T06:08:17.862Z,1003.41
2018-05-03T06:09:17.813Z,1003.40
2018-05-03T06:10:17.803Z,1003.46
2018-05-03T06:11:17.716Z,1003.47
2018-05-03T06:12:17.742Z,1003.48
2018-05-03T06:13:17.621Z,1003.48
2018-05-03T06:14:17.572Z,1003.51
2018-05-03T06:15:17.524Z,1003.50
2018-05-03T06:16:17.477Z,1003.54
2018-05-03T06:17:17.452Z,1003.52
2018-05-03T06:18:17.379Z,1003.55
2018-05-03T06:19:17.333Z,1003.59
2018-05-03T06:20:17.283Z,1003.57
2018-05-03T06:21:17.237Z,1003.57
2018-05-03T06:22:17.212Z,1003.65
2018-05-03T06:23:17.144Z,1003.62
2018-05-03T06:24:17.092Z,1003.63
2018-05-03T06:25:17.046Z,1003.65
2018-05-03T06:26:16.997Z,1003.66
2018-05-03T06:27:16.974Z,1003.68
2018-05-03T06:28:16.902Z,1003.70
2018-05-03T06:29:16.858Z,1003.68
2018-05-03T06:30:16.807Z,1003.72
2018-05-03T06:31:16.762Z,1003.70
2018-05-03T06:32:16.737Z,1003.69
2018-05-03T06:33:16.674Z,1003.72
2018-05-03T06:34:16.620Z,1003.72
2018-05-03T06:35:16.571Z,1003.76
2018-05-03T06:36:16.522Z,1003.79
2018-05-03T06:37:16.498Z,1003.76
2018-05-03T06:38:16.427Z,1003.76
2018-05-03T06:39:16.380Z,1003.79
2018-05-03T06:40:16.338Z,1003.74
2018-05-03T06:41:16.289Z,1003.79
2018-05-03T06:42:16.264Z,1003.78
2018-05-03T06:43:16.194Z,1003.81
2018-05-03T06:44:16.146Z,1003.86
2018-05-03T06:45:16.126Z,1003.86
2018-05-03T06:46:16.053Z,1003.89
2018-05-03T06:47:16.029Z,1003.92
2018-05-03T06:48:15.959Z,1003.97
2018-05-03T06:49:15.908Z,1003.99
2018-05-03T06:50:15.862Z,1003.95
2018-05-03T06:51:15.818Z,1004.02
2018-05-03T06:52:15.793Z,1004.03
2018-05-03T06:53:15.720Z,1003.99
2018-05-03T06:54:15.675Z,1003.99
2018-05-03T06:55:15.623Z,1004.00
2018-05-03T06:56:15.580Z,1004.01
2018-05-03T06:57:15.555Z,1003.98
2018-05-03T06:58:15.492Z,1003.96
2018-05-03T06:59:15.439Z,1003.98
2018-05-03T07:00:15.389Z,1004.01
2018-05-03T07:01:15.340Z,1004.00
2018-05-03T07:02:15.334Z,1004.05
2018-05-03T07:03:15.251Z,1004.04
2018-05-03T07:04:15.441Z,1004.10
2018-05-03T07:05:15.156Z,1004.07
2018-05-03T07:06:15.108Z,1004.09
2018-05-03T07:07:15.061Z,1004.10
2018-05-03T07:08:15.041Z,1004.12
2018-05-03T07:09:14.967Z,1004.20
2018-05-03T07:10:14.926Z,1004.18
2018-05-03T07:11:14.868Z,1004.16
2018-05-03T07:12:14.822Z,1004.20
2018-05-03T07:13:14.805Z,1004.23
2018-05-03T07:14:14.730Z,1004.26
2018-05-03T07:15:14.682Z,1004.29
2018-05-03T07:16:14.708Z,1004.30
2018-05-03T07:17:14.595Z,1004.41
2018-05-03T07:18:14.589Z,1004.40
2018-05-03T07:19:14.494Z,1004.38
2018-05-03T07:20:14.450Z,1004.41
2018-05-03T07:21:14.403Z,1004.37
2018-05-03T07:22:14.356Z,1004.36
2018-05-03T07:23:14.331Z,1004.40
2018-05-03T07:24:14.262Z,1004.42
2018-05-03T07:25:14.216Z,1004.42
2018-05-03T07:26:14.166Z,1004.41
2018-05-03T07:27:14.123Z,1004.49
2018-05-03T07:28:14.097Z,1004.47
2018-05-03T07:29:14.027Z,1004.50
2018-05-03T07:30:13.991Z,1004.45
2018-05-03T07:31:13.930Z,1004.52
2018-05-03T07:32:13.890Z,1004.57
2018-05-03T07:33:13.863Z,1004.55
2018-05-03T07:34:13.801Z,1004.58
2018-05-03T07:35:13.750Z,1004.58
2018-05-03T07:36:13.705Z,1004.59
2018-05-03T07:37:13.661Z,1004.60
2018-05-03T07:38:13.631Z,1004.57
2018-05-03T07:39:13.576Z,1004.53
2018-05-03T07:40:13.517Z,1004.57
2018-05-03T07:41:13.468Z,1004.54
2018-05-03T07:42:13.418Z,1004.59
2018-05-03T07:43:13.400Z,1004.56
2018-05-03T07:44:13.334Z,1004.58
2018-05-03T07:45:13.284Z,1004.61
2018-05-03T07:46:13.240Z,1004.60
2018-05-03T07:47:13.194Z,1004.64
2018-05-03T07:48:13.168Z,1004.67
2018-05-03T07:49:13.097Z,1004.61
2018-05-03T07:50:13.051Z,1004.66
2018-05-03T07:51:13.004Z,1004.63
2018-05-03T07:52:12.952Z,1004.64
2018-05-03T07:53:12.982Z,1004.67
2018-05-03T07:54:12.913Z,1004.68
2018-05-03T07:55:12.827Z,1004.69
2018-05-03T07:56:12.958Z,1004.73
2018-05-03T07:57:12.805Z,1004.73
2018-05-03T07:58:12.878Z,1004.71
2018-05-03T07:59:12.762Z,1004.76
2018-05-03T08:00:12.581Z,1004.76
2018-05-03T08:01:12.545Z,1004.80
2018-05-03T08:02:12.549Z,1004.79
2018-05-03T08:03:12.468Z,1004.82
2018-05-03T08:04:12.398Z,1004.80
2018-05-03T08:05:12.348Z,1004.79
2018-05-03T08:06:12.307Z,1004.79
2018-05-03T08:07:12.260Z,1004.82
2018-05-03T08:08:12.233Z,1004.83
2018-05-03T08:09:12.168Z,1004.87
2018-05-03T08:10:12.121Z,1004.87
2018-05-03T08:11:12.075Z,1004.89
2018-05-03T08:12:12.022Z,1004.93
2018-05-03T08:13:12.009Z,1004.99
2018-05-03T08:14:11.957Z,1004.98
2018-05-03T08:15:11.884Z,1005.07
2018-05-03T08:16:11.839Z,1005.04
2018-05-03T08:17:11.799Z,1005.06
2018-05-03T08:18:11.748Z,1005.04
2018-05-03T08:19:11.731Z,1005.01
2018-05-03T08:20:11.664Z,1005.05
2018-05-03T08:21:11.607Z,1005.10
2018-05-03T08:22:11.560Z,1005.10
2018-05-03T08:23:11.514Z,1005.16
2018-05-03T08:24:11.490Z,1005.17
2018-05-03T08:25:11.419Z,1005.18
2018-05-03T08:26:11.372Z,1005.22
2018-05-03T08:27:11.329Z,1005.19
2018-05-03T08:28:11.281Z,1005.20
2018-05-03T08:29:11.263Z,1005.24
2018-05-03T08:30:11.195Z,1005.26
2018-05-03T08:31:11.143Z,1005.22
2018-05-03T08:32:11.104Z,1005.26
2018-05-03T08:33:11.051Z,1005.26
2018-05-03T08:34:11.030Z,1005.26
2018-05-03T08:35:10.959Z,1005.25
2018-05-03T08:36:10.907Z,1005.27
2018-05-03T08:37:10.865Z,1005.23
2018-05-03T08:38:10.893Z,1005.30
2018-05-03T08:39:10.793Z,1005.34
2018-05-03T08:40:10.730Z,1005.34
2018-05-03T08:41:10.684Z,1005.35
2018-05-03T08:42:10.638Z,1005.38
2018-05-03T08:43:10.597Z,1005.40
2018-05-03T08:44:10.567Z,1005.44
2018-05-03T08:45:10.500Z,1005.41
2018-05-03T08:46:10.449Z,1005.45
2018-05-03T08:47:10.400Z,1005.45
2018-05-03T08:48:10.358Z,1005.43
2018-05-03T08:49:10.337Z,1005.47
2018-05-03T08:50:10.269Z,1005.45
2018-05-03T08:51:10.219Z,1005.48
2018-05-03T08:52:10.170Z,1005.49
2018-05-03T08:53:10.128Z,1005.50
2018-05-03T08:54:10.101Z,1005.51
2018-05-03T08:55:10.040Z,1005.48
2018-05-03T08:56:09.990Z,1005.51
2018-05-03T08:57:09.948Z,1005.54
2018-05-03T08:58:09.894Z,1005.57
2018-05-03T08:59:09.873Z,1005.56
2018-05-03T09:00:09.811Z,1005.59
2018-05-03T09:01:16.948Z,1005.61
2018-05-03T09:02:09.711Z,1005.53
2018-05-03T09:03:09.665Z,1005.57
2018-05-03T09:04:09.644Z,1005.62
2018-05-03T09:05:09.572Z,1005.64
2018-05-03T09:06:09.527Z,1005.65
2018-05-03T09:07:09.483Z,1005.65
2018-05-03T09:08:09.446Z,1005.65
2018-05-03T09:09:09.420Z,1005.72
2018-05-03T09:10:09.350Z,1005.68
2018-05-03T09:11:09.296Z,1005.73
2018-05-03T09:12:09.252Z,1005.74
2018-05-03T09:13:09.207Z,1005.69
2018-05-03T09:14:09.186Z,1005.72
2018-05-03T09:15:09.113Z,1005.78
2018-05-03T09:16:09.070Z,1005.75
2018-05-03T09:17:09.027Z,1005.73
2018-05-03T09:18:08.988Z,1005.79
2018-05-03T09:19:08.955Z,1005.78
2018-05-03T09:20:08.885Z,1005.78
2018-05-03T09:21:08.841Z,1005.79
2018-05-03T09:22:08.797Z,1005.79
2018-05-03T09:23:08.748Z,1005.84
2018-05-03T09:24:08.730Z,1005.85
2018-05-03T09:25:08.658Z,1005.83
2018-05-03T09:26:08.620Z,1005.85
2018-05-03T09:27:08.567Z,1005.88
2018-05-03T09:28:08.524Z,1005.88
2018-05-03T09:29:08.499Z,1005.88
2018-05-03T09:30:08.430Z,1005.86
2018-05-03T09:31:08.388Z,1005.88
2018-05-03T09:32:08.338Z,1005.92
2018-05-03T09:33:08.295Z,1005.91
2018-05-03T09:34:08.283Z,1005.95
2018-05-03T09:35:08.206Z,1005.97
2018-05-03T09:36:08.154Z,1005.95
2018-05-03T09:37:08.115Z,1005.97
2018-05-03T09:38:08.066Z,1005.95
2018-05-03T09:39:08.066Z,1005.98
2018-05-03T09:40:07.975Z,1006.00
2018-05-03T09:41:07.933Z,1006.04
2018-05-03T09:42:07.886Z,1006.07
2018-05-03T09:43:07.842Z,1006.06
2018-05-03T09:44:07.825Z,1006.09
2018-05-03T09:45:07.753Z,1006.08
2018-05-03T09:46:07.705Z,1006.10
2018-05-03T09:47:07.666Z,1006.05
2018-05-03T09:48:07.623Z,1006.05
2018-05-03T09:49:07.596Z,1006.03
2018-05-03T09:50:07.529Z,1006.10
2018-05-03T09:51:07.485Z,1006.13
2018-05-03T09:52:07.441Z,1006.12
2018-05-03T09:53:07.397Z,1006.11
2018-05-03T09:54:07.402Z,1006.17
2018-05-03T09:55:07.305Z,1006.16
2018-05-03T09:56:07.257Z,1006.19
2018-05-03T09:57:07.213Z,1006.18
2018-05-03T09:58:07.167Z,1006.17
2018-05-03T09:59:07.145Z,1006.15
2018-05-03T10:00:07.079Z,1006.10
2018-05-03T10:01:07.033Z,1006.13
2018-05-03T10:02:06.988Z,1006.15
2018-05-03T10:03:06.948Z,1006.13
2018-05-03T10:04:06.942Z,1006.15
2018-05-03T10:05:06.854Z,1006.17
2018-05-03T10:06:06.811Z,1006.13
2018-05-03T10:07:06.765Z,1006.15
2018-05-03T10:08:06.719Z,1006.16
2018-05-03T10:09:06.699Z,1006.18
2018-05-03T10:10:06.629Z,1006.18
2018-05-03T10:11:06.587Z,1006.14
2018-05-03T10:12:06.541Z,1006.18
2018-05-03T10:13:06.496Z,1006.17
2018-05-03T10:14:06.475Z,1006.13
2018-05-03T10:15:06.409Z,1006.22
2018-05-03T10:16:06.359Z,1006.23
2018-05-03T10:17:06.324Z,1006.19
2018-05-03T10:18:06.271Z,1006.19
2018-05-03T10:19:06.251Z,1006.15
2018-05-03T10:20:06.181Z,1006.19
2018-05-03T10:21:06.151Z,1006.17
2018-05-03T10:22:06.095Z,1006.13
2018-05-03T10:23:06.049Z,1006.17
2018-05-03T10:24:06.029Z,1006.19
2018-05-03T10:25:05.960Z,1006.21
2018-05-03T10:26:05.916Z,1006.22
2018-05-03T10:27:05.873Z,1006.21
2018-05-03T10:28:05.828Z,1006.25
2018-05-03T10:29:05.803Z,1006.25
2018-05-03T10:30:05.797Z,1006.29
2018-05-03T10:31:05.698Z,1006.29
2018-05-03T10:32:05.649Z,1006.26
2018-05-03T10:33:05.605Z,1006.25
2018-05-03T10:34:05.578Z,1006.24
2018-05-03T10:35:05.511Z,1006.26
2018-05-03T10:36:05.568Z,1006.21
2018-05-03T10:37:05.424Z,1006.20
2018-05-03T10:38:05.374Z,1006.23
2018-05-03T10:39:05.355Z,1006.20
2018-05-03T10:40:05.287Z,1006.15
2018-05-03T10:41:05.241Z,1006.21
2018-05-03T10:42:05.425Z,1006.24
2018-05-03T10:43:05.153Z,1006.20
2018-05-03T10:44:05.132Z,1006.21
2018-05-03T10:45:05.062Z,1006.22
2018-05-03T10:46:05.034Z,1006.20
2018-05-03T10:47:04.975Z,1006.17
2018-05-03T10:48:04.928Z,1006.19
2018-05-03T10:49:04.930Z,1006.21
2018-05-03T10:50:04.833Z,1006.23
2018-05-03T10:51:04.792Z,1006.27
2018-05-03T10:52:04.778Z,1006.24
2018-05-03T10:53:04.702Z,1006.30
2018-05-03T10:54:04.686Z,1006.28
2018-05-03T10:55:04.613Z,1006.29
2018-05-03T10:56:04.567Z,1006.28
2018-05-03T10:57:04.521Z,1006.27
2018-05-03T10:58:04.478Z,1006.25
2018-05-03T10:59:04.458Z,1006.27
2018-05-03T11:00:04.390Z,1006.26
2018-05-03T11:01:04.346Z,1006.23
2018-05-03T11:02:04.302Z,1006.27
2018-05-03T11:03:04.255Z,1006.24
2018-05-03T11:04:04.247Z,1006.27
2018-05-03T11:05:04.165Z,1006.26
2018-05-03T11:06:04.120Z,1006.25
2018-05-03T11:07:04.073Z,1006.25
2018-05-03T11:08:04.026Z,1006.26
2018-05-03T11:09:03.981Z,1006.27
2018-05-03T11:10:03.959Z,1006.24
2018-05-03T11:11:03.967Z,1006.25
2018-05-03T11:12:03.844Z,1006.24
2018-05-03T11:13:03.802Z,1006.23
2018-05-03T11:14:03.756Z,1006.26
2018-05-03T11:15:03.730Z,1006.23
2018-05-03T11:16:03.666Z,1006.19
2018-05-03T11:17:03.620Z,1006.20
2018-05-03T11:18:03.574Z,1006.23
2018-05-03T11:19:03.525Z,1006.20
2018-05-03T11:20:03.506Z,1006.22
2018-05-03T11:21:03.437Z,1006.27
2018-05-03T11:22:03.392Z,1006.26
2018-05-03T11:23:03.349Z,1006.27
2018-05-03T11:24:03.301Z,1006.23
2018-05-03T11:25:03.282Z,1006.25
2018-05-03T11:26:03.285Z,1006.27
2018-05-03T11:27:03.167Z,1006.30
2018-05-03T11:28:03.116Z,1006.31
2018-05-03T11:29:03.072Z,1006.29
2018-05-03T11:30:03.056Z,1006.28
2018-05-03T11:31:02.981Z,1006.29
2018-05-03T11:32:02.934Z,1006.31
2018-05-03T11:33:02.891Z,1006.29
2018-05-03T11:34:02.843Z,1006.30
2018-05-03T11:35:02.824Z,1006.27
2018-05-03T11:36:02.753Z,1006.32
2018-05-03T11:37:02.763Z,1006.34
2018-05-03T11:38:02.669Z,1006.33
2018-05-03T11:39:02.618Z,1006.33
2018-05-03T11:40:02.597Z,1006.36
2018-05-03T11:41:02.528Z,1006.30
2018-05-03T11:42:02.482Z,1006.28
2018-05-03T11:43:02.439Z,1006.27
2018-05-03T11:44:02.392Z,1006.30
2018-05-03T11:45:02.378Z,1006.29
2018-05-03T11:46:02.306Z,1006.26
2018-05-03T11:47:02.262Z,1006.27
2018-05-03T11:48:02.212Z,1006.31
2018-05-03T11:49:02.167Z,1006.35
2018-05-03T11:50:02.144Z,1006.34
2018-05-03T11:51:02.076Z,1006.38
2018-05-03T11:52:02.029Z,1006.39
2018-05-03T11:53:01.989Z,1006.41
2018-05-03T11:54:01.937Z,1006.36
2018-05-03T11:55:01.912Z,1006.37
2018-05-03T11:56:01.848Z,1006.40
2018-05-03T11:57:01.801Z,1006.42
2018-05-03T11:58:01.760Z,1006.40
2018-05-03T11:59:01.712Z,1006.43
2018-05-03T12:00:01.693Z,1006.40
2018-05-03T12:01:01.626Z,1006.39
2018-05-03T12:02:01.577Z,1006.39
2018-05-03T12:03:01.533Z,1006.43
2018-05-03T12:04:01.485Z,1006.43
2018-05-03T12:05:01.467Z,1006.43
2018-05-03T12:06:01.467Z,1006.43
2018-05-03T12:07:01.351Z,1006.48